Time;durP1;ratioP1;P1;durP2;ratioP2;P2;SDS_P1;SDS_P2;PMS_P1;PMS_P2;Temp;Humidity;BMP_temperature;BMP_pressure;BME280_temperature;BME280_humidity;BME280_pressure;Samples;Min_cycle;Max_cycle;Signal;HPM_P1;HPM_P2
2023/03/11 00:00:32;;;;;;;11.55;2.97;;;;;;;;;;4933132;29;20843;-80
2023/03/11 00:02:59;;;;;;;8.87;2.43;;;;;;;;;;4914848;29;20497;-81
2023/03/11 00:05:27;;;;;;;10.77;2.50;;;;;;;;;;4916189;29;20428;-81
2023/03/11 00:07:54;;;;;;;12.15;2.72;;;;;;;;;;4930568;29;20470;-81
2023/03/11 00:10:21;;;;;;;10.52;2.60;;;;;;;;;;4897721;29;20472;-81
2023/03/11 00:12:47;;;;;;;9.30;2.50;;;;;;;;;;4912006;29;20872;-81
2023/03/11 00:15:14;;;;;;;10.18;2.97;;;;;;;;;;4916107;29;20507;-80
2023/03/11 00:17:40;;;;;;;9.60;3.17;;;;;;;;;;4915661;29;20466;-79
2023/03/11 00:20:07;;;;;;;11.32;3.45;;;;;;;;;;4915128;29;20468;-79
2023/03/11 00:22:33;;;;;;;7.40;2.67;;;;;;;;;;4930776;29;20463;-79
2023/03/11 00:24:59;;;;;;;14.45;3.42;;;;;;;;;;4915836;29;20427;-79
2023/03/11 00:27:25;;;;;;;12.40;3.25;;;;;;;;;;4924841;29;20437;-79
2023/03/11 00:29:51;;;;;;;9.98;2.72;;;;;;;;;;4897511;29;20514;-80
2023/03/11 00:32:18;;;;;;;9.23;2.58;;;;;;;;;;4917425;29;20773;-80
2023/03/11 00:34:44;;;;;;;10.35;2.40;;;;;;;;;;4897950;29;20929;-80
2023/03/11 00:37:10;;;;;;;6.50;2.58;;;;;;;;;;4913589;29;20827;-79
2023/03/11 00:39:36;;;;;;;7.45;1.92;;;;;;;;;;4894005;29;20431;-80
2023/03/11 00:42:02;;;;;;;10.13;2.33;;;;;;;;;;4932179;29;20761;-79
2023/03/11 00:44:28;;;;;;;7.38;2.10;;;;;;;;;;4929813;29;20442;-79
2023/03/11 00:46:55;;;;;;;10.68;1.90;;;;;;;;;;4901285;29;20470;-79
2023/03/11 00:49:21;;;;;;;6.20;1.92;;;;;;;;;;4898232;29;20439;-79
2023/03/11 00:51:47;;;;;;;8.52;1.70;;;;;;;;;;4916408;29;20498;-79
2023/03/11 00:54:13;;;;;;;4.90;1.70;;;;;;;;;;4932409;29;20776;-79
2023/03/11 00:56:40;;;;;;;7.53;1.50;;;;;;;;;;4919280;29;20427;-79
2023/03/11 00:59:06;;;;;;;9.05;1.83;;;;;;;;;;4933848;29;20436;-79
2023/03/11 01:01:32;;;;;;;6.28;1.90;;;;;;;;;;4895373;29;20860;-79
2023/03/11 01:03:58;;;;;;;9.55;1.70;;;;;;;;;;4907667;29;20492;-79
2023/03/11 01:06:25;;;;;;;8.10;1.67;;;;;;;;;;4919406;29;20436;-79
2023/03/11 01:08:51;;;;;;;5.03;1.60;;;;;;;;;;4903796;29;20471;-79
2023/03/11 01:11:17;;;;;;;8.57;1.88;;;;;;;;;;4911403;29;20425;-78
2023/03/11 01:13:43;;;;;;;7.05;1.63;;;;;;;;;;4908072;29;20494;-79
2023/03/11 01:16:09;;;;;;;5.95;1.60;;;;;;;;;;4915710;29;20429;-79
2023/03/11 01:18:35;;;;;;;6.70;1.50;;;;;;;;;;4916748;29;20897;-78
2023/03/11 01:21:01;;;;;;;4.88;1.65;;;;;;;;;;4897129;29;20920;-78
2023/03/11 01:23:27;;;;;;;6.80;1.60;;;;;;;;;;4917098;29;20519;-78
2023/03/11 01:25:53;;;;;;;8.65;1.83;;;;;;;;;;4902237;29;20856;-78
2023/03/11 01:28:20;;;;;;;7.38;2.00;;;;;;;;;;4919673;29;20467;-78
2023/03/11 01:30:46;;;;;;;9.93;1.83;;;;;;;;;;4917616;29;20510;-78
2023/03/11 01:33:17;;;;;;;5.93;1.70;;;;;;;;;;4933430;29;21470;-78
2023/03/11 01:35:44;;;;;;;8.65;1.80;;;;;;;;;;4932619;29;20436;-78
2023/03/11 01:38:11;;;;;;;7.57;1.70;;;;;;;;;;4935210;29;20419;-78
2023/03/11 01:40:42;;;;;;;7.37;1.60;;;;;;;;;;4933813;29;20515;-78
2023/03/11 01:43:39;;;;;;;6.37;1.70;;;0.20;99.90;;;;;;4918501;29;20463;-78
2023/03/11 01:46:08;;;;;;;8.75;1.70;;;;;;;;;;4914649;29;20436;-78
2023/03/11 01:48:34;;;;;;;7.13;1.70;;;;;;;;;;4932252;29;20427;-78
2023/03/11 01:51:01;;;;;;;6.40;1.60;;;;;;;;;;4925022;29;20431;-77
2023/03/11 01:53:27;;;;;;;5.40;1.60;;;;;;;;;;4919571;29;20407;-77
2023/03/11 01:55:53;;;;;;;7.05;1.40;;;;;;;;;;4915139;29;20933;-77
2023/03/11 01:58:27;;;;;;;5.70;1.33;;;;;;;;;;4908748;29;20458;-77
2023/03/11 02:00:54;;;;;;;5.57;1.20;;;;;;;;;;4916077;29;20443;-77
2023/03/11 02:03:26;;;;;;;5.65;1.38;;;;;;;;;;4932032;29;20427;-77
2023/03/11 02:05:53;;;;;;;6.32;1.20;;;;;;;;;;4932091;29;20466;-77
2023/03/11 02:08:19;;;;;;;6.63;1.30;;;;;;;;;;4918438;29;20920;-77
2023/03/11 02:10:46;;;;;;;5.47;1.45;;;;;;;;;;4914091;29;20944;-77
2023/03/11 02:13:12;;;;;;;3.40;1.20;;;;;;;;;;4930631;29;20815;-77
2023/03/11 02:15:39;;;;;;;6.13;1.20;;;;;;;;;;4929333;29;20431;-77
2023/03/11 02:18:06;;;;;;;4.68;1.40;;;;;;;;;;4899742;29;20453;-78
2023/03/11 02:20:42;;;;;;;5.07;1.33;;;;;;;;;;4927587;29;20860;-78
2023/03/11 02:23:08;;;;;;;4.18;1.30;;;;;;;;;;4933970;29;20447;-78
2023/03/11 02:25:39;;;;;;;7.47;1.70;;;;;;;;;;4913200;29;20447;-77
2023/03/11 02:28:07;;;;;;;4.45;1.20;;;;;;;;;;4929967;29;20467;-77
2023/03/11 02:30:34;;;;;;;6.13;1.50;;;;;;;;;;4917085;29;21014;-78
2023/03/11 02:33:01;;;;;;;8.55;1.60;;;;;;;;;;4915485;29;20409;-78
2023/03/11 02:35:27;;;;;;;4.53;1.30;;;;;;;;;;4928632;29;20439;-77
2023/03/11 02:37:53;;;;;;;5.40;1.38;;;;;;;;;;4906461;29;20481;-77
2023/03/11 02:40:23;;;;;;;4.55;1.20;;;;;;;;;;4909263;29;20841;-78
2023/03/11 02:43:09;;;;;;;6.15;1.30;;;;;;;;;;4899381;29;20469;-78
2023/03/11 02:45:36;;;;;;;3.80;1.40;;;;;;;;;;4918896;29;20498;-77
2023/03/11 02:48:02;;;;;;;5.63;1.40;;;;;;;;;;4915089;29;20419;-77
2023/03/11 02:50:29;;;;;;;6.07;1.20;;;;;;;;;;4933440;29;20431;-78
2023/03/11 02:52:55;;;;;;;6.60;1.40;;;;;;;;;;4931312;29;20431;-78
2023/03/11 02:55:22;;;;;;;6.97;1.50;;;;;;;;;;4917092;29;20443;-77
2023/03/11 02:57:48;;;;;;;7.72;1.30;;;;;;;;;;4916696;29;20423;-78
2023/03/11 03:00:15;;;;;;;4.27;1.37;;;;;;;;;;4933770;29;20407;-78
2023/03/11 03:02:45;;;;;;;4.93;1.30;;;;;;;;;;4915205;29;20425;-78
2023/03/11 03:05:11;;;;;;;4.15;1.38;;;;;;;;;;4926336;29;20433;-77
2023/03/11 03:07:37;;;;;;;7.10;1.50;;;;;;;;;;4912738;29;20510;-77
2023/03/11 03:10:04;;;;;;;4.70;1.40;;;;;;;;;;4919298;29;20448;-76
2023/03/11 03:12:30;;;;;;;5.70;1.17;;;;;;;;;;4914988;29;20775;-77
2023/03/11 03:14:57;;;;;;;5.68;1.50;;;;;;;;;;4911147;29;20432;-77
2023/03/11 03:17:23;;;;;;;5.07;1.50;;;;;;;;;;4932057;29;20908;-78
2023/03/11 03:19:49;;;;;;;3.92;1.42;;;;;;;;;;4928179;29;20433;-78
2023/03/11 03:22:15;;;;;;;5.07;1.35;;;;;;;;;;4885050;29;20444;-78
2023/03/11 03:24:41;;;;;;;3.40;1.60;;;;;;;;;;4932426;29;20990;-77
2023/03/11 03:27:07;;;;;;;5.40;1.38;;;;;;;;;;4916906;29;20435;-78
2023/03/11 03:29:33;;;;;;;7.28;1.55;;;;;;;;;;4917961;29;20511;-77
2023/03/11 03:31:59;;;;;;;4.82;1.42;;;;;;;;;;4929376;29;20769;-78
2023/03/11 03:34:25;;;;;;;3.93;1.53;;;;;;;;;;4916385;29;20512;-78
2023/03/11 03:36:52;;;;;;;5.25;1.60;;;;;;;;;;4924685;29;20508;-78
2023/03/11 03:39:18;;;;;;;6.78;1.60;;;;;;;;;;4913814;29;20492;-78
2023/03/11 03:41:45;;;;;;;4.30;1.60;;;;;;;;;;4908867;29;20469;-78
2023/03/11 03:44:11;;;;;;;4.88;1.42;;;;;;;;;;4931850;29;20428;-78
2023/03/11 03:46:38;;;;;;;4.57;1.40;;;;;;;;;;4902102;29;20419;-78
2023/03/11 03:49:04;;;;;;;4.40;1.48;;;;;;;;;;4930280;29;20475;-78
2023/03/11 03:51:30;;;;;;;4.40;1.40;;;;;;;;;;4931496;29;20446;-78
2023/03/11 03:53:56;;;;;;;6.18;1.70;;;;;;;;;;4931850;29;20446;-77
2023/03/11 03:56:22;;;;;;;4.53;1.47;;;;;;;;;;4917618;29;20475;-78
2023/03/11 03:58:48;;;;;;;9.00;1.88;;;;;;;;;;4903997;29;20471;-78
2023/03/11 04:01:14;;;;;;;6.97;1.55;;;;;;;;;;4898543;29;20431;-78
2023/03/11 04:03:41;;;;;;;7.72;2.10;;;;;;;;;;4912923;29;20443;-77
2023/03/11 04:06:07;;;;;;;6.57;1.52;;;;;;;;;;4916692;29;20435;-77
2023/03/11 04:08:33;;;;;;;5.55;1.70;;;;;;;;;;4915437;29;20518;-77
2023/03/11 04:10:59;;;;;;;5.30;1.80;;;;;;;;;;4931884;29;20935;-77
2023/03/11 04:13:25;;;;;;;5.75;1.70;;;;;;;;;;4930626;29;20423;-77
2023/03/11 04:15:51;;;;;;;6.80;1.70;;;;;;;;;;4933060;29;20411;-77
2023/03/11 04:18:17;;;;;;;6.38;1.70;;;;;;;;;;4900654;29;20496;-77
2023/03/11 04:20:43;;;;;;;7.67;1.90;;;;;;;;;;4897060;29;20486;-78
2023/03/11 04:23:09;;;;;;;4.30;1.70;;;;;;;;;;4919385;29;20966;-77
2023/03/11 04:25:36;;;;;;;7.97;1.90;;;;;;;;;;4931445;29;20955;-78
2023/03/11 04:28:02;;;;;;;5.25;1.70;;;;;;;;;;4922232;29;20773;-78
2023/03/11 04:30:28;;;;;;;7.37;1.83;;;;;;;;;;4934405;29;20808;-77
2023/03/11 04:32:54;;;;;;;8.27;2.00;;;;;;;;;;4933534;29;20522;-78
2023/03/11 04:35:20;;;;;;;8.00;1.77;;;;;;;;;;4919346;29;20506;-77
2023/03/11 04:37:46;;;;;;;7.68;1.60;;;;;;;;;;4936581;29;20426;-77
2023/03/11 04:40:12;;;;;;;5.88;1.90;;;;;;;;;;4913922;29;20468;-78
2023/03/11 04:42:38;;;;;;;5.15;1.70;;;;;;;;;;4917754;29;20465;-78
2023/03/11 04:45:05;;;;;;;6.30;1.73;;;;;;;;;;4910132;29;20430;-77
2023/03/11 04:47:31;;;;;;;5.63;1.90;;;;;;;;;;4920173;29;20435;-78
2023/03/11 04:49:57;;;;;;;4.15;1.70;;;;;;;;;;4934300;29;20490;-78
2023/03/11 04:52:23;;;;;;;5.78;1.70;;;;;;;;;;4919397;29;20427;-77
2023/03/11 04:54:49;;;;;;;6.60;1.80;;;;;;;;;;4932753;29;20431;-78
2023/03/11 04:57:15;;;;;;;5.50;1.42;;;;;;;;;;4904311;29;20506;-78
2023/03/11 04:59:41;;;;;;;6.15;1.77;;;;;;;;;;4931893;29;20460;-78
2023/03/11 05:02:07;;;;;;;5.35;1.70;;;;;;;;;;4918723;29;20437;-78
2023/03/11 05:04:33;;;;;;;4.25;1.48;;;;;;;;;;4916332;29;20443;-77
2023/03/11 05:06:59;;;;;;;5.70;1.70;;;;;;;;;;4917402;29;20431;-78
2023/03/11 05:09:26;;;;;;;7.10;1.60;;;;;;;;;;4927437;29;20954;-77
2023/03/11 05:11:52;;;;;;;5.22;1.40;;;;;;;;;;4918038;29;20431;-77
2023/03/11 05:14:18;;;;;;;8.10;1.80;;;;;;;;;;4915581;29;20492;-79
2023/03/11 05:16:44;;;;;;;6.75;2.17;;;;;;;;;;4901513;29;20788;-79
2023/03/11 05:21:54;;;;;;;6.80;1.70;;;;;;;;;;4933911;29;20447;-78
2023/03/11 05:24:21;;;;;;;7.22;1.70;;;;;;;;;;4919799;29;20439;-78
2023/03/11 05:26:47;;;;;;;6.03;1.65;;;;;;;;;;4918684;29;20440;-78
2023/03/11 05:29:13;;;;;;;4.07;1.58;;;;;;;;;;4934551;29;20528;-78
2023/03/11 05:31:39;;;;;;;3.65;1.80;;;;;;;;;;4918746;29;20432;-78
2023/03/11 05:34:05;;;;;;;4.82;1.52;;;;;;;;;;4933683;29;20911;-78
2023/03/11 05:36:31;;;;;;;5.60;1.80;;;;;;;;;;4917480;29;20552;-78
2023/03/11 05:38:57;;;;;;;6.60;1.75;;;;;;;;;;4897986;29;20439;-78
2023/03/11 05:41:23;;;;;;;6.40;1.77;;;;;;;;;;4918639;29;20462;-78
2023/03/11 05:43:49;;;;;;;11.65;1.70;;;;;;;;;;4902473;29;20448;-78
2023/03/11 05:46:15;;;;;;;7.87;1.97;;;;;;;;;;4902478;29;20435;-78
2023/03/11 05:48:41;;;;;;;6.78;2.80;;;;;;;;;;4889018;29;20520;-78
2023/03/11 05:51:09;;;;;;;4.93;1.63;;;;;;;;;;4914731;29;20515;-78
2023/03/11 05:53:35;;;;;;;7.55;2.00;;;;;;;;;;4917377;29;20928;-78
2023/03/11 05:56:01;;;;;;;6.55;1.90;;;;;;;;;;4934078;29;20424;-78
2023/03/11 05:58:28;;;;;;;7.18;1.75;;;;;;;;;;4899586;29;20443;-78
2023/03/11 06:00:54;;;;;;;6.45;1.83;;;;;;;;;;4907466;29;20432;-78
2023/03/11 06:03:20;;;;;;;6.07;1.58;;;;;;;;;;4911482;29;20862;-78
2023/03/11 06:05:47;;;;;;;7.03;1.90;;;;;;;;;;4920957;29;20841;-78
2023/03/11 06:08:13;;;;;;;11.60;1.73;;;;;;;;;;4915000;29;20462;-79
2023/03/11 06:10:40;;;;;;;8.02;1.60;;;;;;;;;;4923158;29;20970;-78
2023/03/11 06:13:06;;;;;;;4.75;1.58;;;;;;;;;;4919623;29;20408;-79
2023/03/11 06:15:32;;;;;;;7.90;1.53;;;;;;;;;;4933160;29;20459;-78
2023/03/11 06:17:59;;;;;;;4.68;1.63;;;;;;;;;;4932153;29;20438;-79
2023/03/11 06:20:25;;;;;;;4.68;1.55;;;;;;;;;;4931502;29;20435;-78
2023/03/11 06:22:52;;;;;;;13.05;2.17;;;;;;;;;;4918546;29;20424;-78
2023/03/11 06:25:18;;;;;;;7.18;1.77;;;;;;;;;;4932233;29;20431;-79
2023/03/11 06:27:49;;;;;;;8.48;1.52;;;;;;;;;;4933782;29;20435;-79
2023/03/11 06:30:15;;;;;;;6.10;1.52;;;;;;;;;;4931877;29;20519;-79
2023/03/11 06:32:43;;;;;;;5.72;1.70;;;;;;;;;;4930295;29;20486;-79
2023/03/11 06:35:10;;;;;;;4.20;1.80;;;;;;;;;;4932248;29;20967;-79
2023/03/11 06:37:36;;;;;;;5.80;1.67;;;;;;;;;;4917518;29;20427;-79
2023/03/11 06:40:04;;;;;;;4.93;1.63;;;;;;;;;;4934374;29;20498;-79
2023/03/11 06:42:30;;;;;;;4.18;1.50;;;;;;;;;;4917173;29;20434;-80
2023/03/11 06:44:56;;;;;;;8.18;1.85;;;;;;;;;;4916795;29;20439;-79
2023/03/11 06:47:22;;;;;;;4.85;1.60;;;;;;;;;;4932755;29;20439;-79
2023/03/11 06:49:49;;;;;;;7.15;1.80;;;;;;;;;;4935344;29;20451;-79
2023/03/11 06:52:16;;;;;;;7.35;1.70;;;;;;;;;;4929044;29;20924;-79
2023/03/11 06:54:42;;;;;;;5.45;1.50;;;;;;;;;;4916443;29;20427;-78
2023/03/11 06:57:08;;;;;;;6.75;1.60;;;;;;;;;;4933176;29;20430;-78
2023/03/11 06:59:35;;;;;;;3.58;1.40;;;;;;;;;;4902774;29;20471;-78
2023/03/11 07:02:02;;;;;;;3.67;1.48;;;;;;;;;;4933320;29;20481;-78
2023/03/11 07:04:29;;;;;;;5.13;1.63;;;;;;;;;;4933977;29;20788;-78
2023/03/11 07:06:55;;;;;;;5.13;1.60;;;;;;;;;;4936027;29;20436;-78
2023/03/11 07:09:22;;;;;;;4.47;2.00;;;;;;;;;;4923174;29;20436;-79
2023/03/11 07:11:48;;;;;;;5.65;2.40;;;;;;;;;;4904502;29;20456;-77
2023/03/11 07:14:15;;;;;;;8.77;2.00;;;;;;;;;;4913438;29;20434;-77
2023/03/11 07:16:41;;;;;;;6.45;2.45;;;;;;;;;;4935172;29;20458;-78
2023/03/11 07:19:08;;;;;;;6.93;1.80;;;;;;;;;;4917425;29;20435;-79
2023/03/11 07:21:35;;;;;;;6.40;1.83;;;;;;;;;;4919781;29;20502;-77
2023/03/11 07:24:01;;;;;;;5.18;1.55;;;;;;;;;;4929913;29;20851;-78
2023/03/11 07:26:28;;;;;;;5.07;1.92;;;;;;;;;;4915513;29;20429;-79
2023/03/11 07:28:55;;;;;;;6.22;1.90;;;;;;;;;;4932575;29;20435;-79
2023/03/11 07:31:23;;;;;;;5.72;2.08;;;;;;;;;;4932554;29;20998;-78
2023/03/11 07:33:49;;;;;;;7.05;1.70;;;;;;;;;;4900974;29;21018;-79
2023/03/11 07:36:17;;;;;;;5.35;1.80;;;;;;;;;;4924863;29;20427;-80
2023/03/11 07:38:43;;;;;;;8.13;2.07;;;;;;;;;;4930258;29;20447;-80
2023/03/11 07:41:10;;;;;;;7.90;2.13;;;;;;;;;;4916499;29;20431;-84
2023/03/11 07:43:36;;;;;;;7.30;2.10;;;;;;;;;;4915781;29;20532;-82
2023/03/11 07:46:03;;;;;;;5.90;1.90;;;;;;;;;;4908222;29;20512;-82
2023/03/11 07:48:29;;;;;;;4.43;1.80;;;;;;;;;;4930316;29;20514;-82
2023/03/11 07:51:11;;;;;;;6.95;2.20;;;;;;;;;;4898334;29;20435;-80
2023/03/11 07:53:39;;;;;;;7.97;2.00;;;;;;;;;;4918548;29;20438;-84
2023/03/11 07:56:05;;;;;;;7.18;2.03;;;;;;;;;;4914318;29;20812;-82
2023/03/11 07:58:32;;;;;;;8.95;1.98;;;;;;;;;;4916656;29;20511;-82
2023/03/11 08:01:03;;;;;;;7.72;1.80;;;;;;;;;;4912046;29;20427;-81
2023/03/11 08:03:29;;;;;;;6.95;2.30;;;;;;;;;;4930469;29;20437;-83
2023/03/11 08:05:58;;;;;;;6.03;1.80;;;;;;;;;;4912310;29;20431;-81
2023/03/11 08:08:24;;;;;;;4.82;2.13;;;;;;;;;;4932928;29;20792;-81
2023/03/11 08:10:50;;;;;;;6.32;1.92;;;;;;;;;;4933813;29;20463;-80
2023/03/11 08:13:16;;;;;;;6.47;2.00;;;;;;;;;;4898102;29;20456;-78
2023/03/11 08:15:43;;;;;;;6.13;1.88;;;;;;;;;;4913859;29;20427;-78
2023/03/11 08:18:09;;;;;;;3.65;1.45;;;;;;;;;;4910608;29;20445;-78
2023/03/11 08:20:37;;;;;;;7.82;2.20;;;;;;;;;;4932699;29;20859;-78
2023/03/11 08:23:03;;;;;;;6.43;2.00;;;;;;;;;;4926712;29;20427;-78
2023/03/11 08:25:29;;;;;;;12.70;5.47;;;;;;;;;;4916310;29;20844;-81
2023/03/11 08:27:55;;;;;;;5.90;1.75;;;;;;;;;;4919063;29;20427;-81
2023/03/11 08:30:22;;;;;;;8.55;1.80;;;;;;;;;;4900311;29;20511;-81
2023/03/11 08:32:48;;;;;;;4.60;1.73;;;;;;;;;;4919273;29;22700;-78
2023/03/11 08:35:14;;;;;;;7.13;1.90;;;;;;;;;;4934114;29;20431;-79
2023/03/11 08:37:41;;;;;;;5.43;1.90;;;;;;;;;;4916570;29;20488;-78
2023/03/11 08:40:09;;;;;;;4.03;1.85;;;;;;;;;;4934488;29;20506;-80
2023/03/11 08:42:35;;;;;;;8.90;2.15;;;;;;;;;;4917850;29;20463;-80
2023/03/11 08:45:01;;;;;;;8.83;2.43;;;;;;;;;;4935997;29;20979;-79
2023/03/11 08:47:27;;;;;;;7.30;2.20;;;;;;;;;;4918768;29;20465;-78
2023/03/11 08:49:53;;;;;;;6.57;2.10;;;;;;;;;;4918790;29;20446;-78
2023/03/11 08:52:19;;;;;;;6.70;2.20;;;;;;;;;;4932432;29;20435;-79
2023/03/11 08:54:45;;;;;;;6.72;2.00;;;;;;;;;;4928328;29;20858;-78
2023/03/11 08:57:11;;;;;;;6.93;2.00;;;;;;;;;;4930184;29;20423;-79
2023/03/11 08:59:37;;;;;;;7.63;2.20;;;;;;;;;;4926976;29;20569;-80
2023/03/11 09:02:04;;;;;;;8.82;2.30;;;;;;;;;;4911857;29;20438;-81
2023/03/11 09:04:30;;;;;;;8.80;2.10;;;;;;;;;;4931242;29;20431;-84
2023/03/11 09:06:56;;;;;;;6.40;1.95;;;;;;;;;;4919061;29;20442;-82
2023/03/11 09:09:22;;;;;;;7.38;2.00;;;;;;;;;;4934462;29;20435;-81
2023/03/11 09:11:48;;;;;;;5.82;2.42;;;;;;;;;;4898694;29;20435;-80
2023/03/11 09:14:14;;;;;;;7.22;2.38;;;;;;;;;;4933124;29;20984;-80
2023/03/11 09:16:40;;;;;;;5.80;1.98;;;;;;;;;;4930843;29;20427;-80
2023/03/11 09:19:06;;;;;;;8.57;2.22;;;;;;;;;;4929267;29;20474;-80
2023/03/11 09:21:36;;;;;;;7.00;2.10;;;;;;;;;;4905877;29;20449;-81
2023/03/11 09:24:03;;;;;;;7.35;2.50;;;;;;;;;;4914291;29;20434;-83
2023/03/11 09:26:29;;;;;;;8.25;3.10;;;;;;;;;;4904584;29;20519;-83
2023/03/11 09:28:58;;;;;;;9.75;2.83;;;;;;;;;;4918052;29;20507;-84
2023/03/11 09:31:24;;;;;;;5.97;2.30;;;;;;;;;;4923987;29;20417;-82
2023/03/11 09:33:55;;;;;;;6.90;2.20;;;;;;;;;;4916308;29;20421;-83
2023/03/11 09:36:21;;;;;;;5.88;2.42;;;;;;;;;;4913406;29;20444;-82
2023/03/11 09:38:47;;;;;;;6.65;2.30;;;;;;;;;;4919996;29;20436;-83
2023/03/11 09:41:22;;;;;;;6.57;2.00;;;;;;;;;;4890110;29;20432;-81
2023/03/11 09:44:04;;;;;;;5.30;2.40;;;;;;;;;;4918043;29;20839;-80
2023/03/11 09:46:36;;;;;;;10.95;2.17;;;;;;;;;;4927326;29;20454;-79
2023/03/11 09:49:12;;;;;;;11.65;2.70;;;;;;;;;;4901588;29;20806;-81
2023/03/11 09:51:42;;;;;;;7.03;2.20;;;;;;;;;;4929718;29;20467;-81
2023/03/11 09:54:10;;;;;;;6.25;2.00;;;;;;;;;;4914509;29;20538;-81
2023/03/11 09:56:37;;;;;;;5.45;2.10;;;;;;;;;;4918539;29;20409;-80
2023/03/11 09:59:16;;;;;;;6.28;2.17;;;;;;;;;;4935287;29;20412;-81
2023/03/11 10:01:44;;;;;;;8.45;2.15;;;;;;;;;;4934982;29;20908;-81
2023/03/11 10:04:10;;;;;;;9.87;2.40;;;;;;;;;;4932839;29;20931;-80
2023/03/11 10:06:37;;;;;;;6.75;2.20;;;;;;;;;;4919276;29;20445;-80
2023/03/11 10:09:19;;;;;;;7.72;2.30;;;;;;;;;;4934987;29;20435;-81
2023/03/11 10:11:54;;;;;;;9.13;2.30;;;;;;;;;;4935670;29;20419;-80
2023/03/11 10:14:55;;;;;;;6.10;2.23;;;4.40;99.90;;;;;;4934554;29;20416;-82
2023/03/11 10:17:31;;;;;;;6.65;2.33;;;;;;;;;;4908232;29;20802;-82
2023/03/11 10:20:00;;;;;;;8.35;2.70;;;;;;;;;;4917483;29;20482;-82
2023/03/11 10:22:26;;;;;;;6.57;2.58;;;;;;;;;;4928710;29;20470;-81
2023/03/11 10:25:11;;;;;;;7.97;2.88;;;;;;;;;;4914870;29;20933;-81
2023/03/11 10:27:41;;;;;;;7.40;2.93;;;;;;;;;;4908673;29;20501;-81
2023/03/11 10:30:10;;;;;;;5.90;2.40;;;;;;;;;;4900146;29;20441;-81
2023/03/11 10:32:40;;;;;;;9.13;2.97;;;;;;;;;;4908813;29;20433;-81
2023/03/11 10:35:30;;;;;;;8.15;2.90;;;;;;;;;;4914432;29;20791;-81
2023/03/11 10:38:03;;;;;;;8.52;3.10;;;;;;;;;;4910859;29;20424;-81
2023/03/11 10:40:31;;;;;;;9.10;3.22;;;;;;;;;;4918007;29;20494;-81
2023/03/11 10:42:58;;;;;;;8.32;3.22;;;;;;;;;;4911266;29;20451;-79
2023/03/11 10:45:25;;;;;;;8.60;3.17;;;;;;;;;;4932739;29;20435;-80
2023/03/11 10:47:51;;;;;;;11.50;3.53;;;;;;;;;;4896539;29;20429;-78
2023/03/11 10:50:19;;;;;;;11.18;3.55;;;;;;;;;;4931994;29;20443;-81
2023/03/11 10:53:05;;;;;;;7.78;2.70;;;6.30;99.90;;;;;;4916507;29;20543;-83
2023/03/11 10:55:31;;;;;;;6.90;2.93;;;;;;;;;;4902389;29;20472;-84
2023/03/11 10:58:21;;;;;;;7.63;2.60;;;;;;;;;;4919064;29;20761;-85
2023/03/11 11:01:00;;;;;;;7.55;2.22;;;;;;;;;;4919100;29;20417;-87
2023/03/11 11:03:27;;;;;;;7.15;2.58;;;;;;;;;;4919830;29;20448;-91
2023/03/11 11:05:58;;;;;;;6.10;2.60;;;;;;;;;;4889733;29;20424;-87
2023/03/11 11:08:24;;;;;;;4.55;2.30;;;;;;;;;;4910756;29;20940;-86
2023/03/11 11:10:52;;;;;;;7.10;2.33;;;;;;;;;;4909425;29;20415;-87
2023/03/11 11:13:22;;;;;;;5.15;2.00;;;;;;;;;;4918223;29;20450;-85
2023/03/11 11:15:56;;;;;;;7.80;2.05;;;;;;;;;;4935548;29;20419;-85
2023/03/11 11:18:34;;;;;;;7.07;1.88;;;;;;;;;;4919539;29;20439;-85
2023/03/11 11:21:02;;;;;;;7.45;2.05;;;;;;;;;;4916776;29;20447;-85
2023/03/11 11:23:38;;;;;;;6.65;2.20;;;;;;;;;;4928278;29;20442;-86
2023/03/11 11:26:07;;;;;;;7.55;1.90;;;;;;;;;;4924232;29;20423;-85
2023/03/11 11:28:33;;;;;;;8.43;2.10;;;;;;;;;;4929732;29;20487;-85
2023/03/11 11:31:02;;;;;;;5.10;1.83;;;;;;;;;;4917660;29;20431;-85
2023/03/11 11:33:49;;;;;;;7.72;2.28;;;;;;;;;;4917202;29;20427;-84
2023/03/11 11:36:15;;;;;;;5.50;1.80;;;;;;;;;;4915362;29;20409;-86
2023/03/11 11:38:42;;;;;;;6.28;1.70;;;;;;;;;;4916073;29;20442;-86
2023/03/11 11:41:09;;;;;;;5.80;1.83;;;;;;;;;;4906314;29;20494;-86
2023/03/11 11:43:35;;;;;;;6.07;2.00;;;;;;;;;;4914784;29;20459;-85
2023/03/11 11:46:06;;;;;;;6.07;1.52;;;;;;;;;;4915285;29;20415;-85
2023/03/11 11:48:40;;;;;;;7.13;1.60;;;;;;;;;;4916547;29;20437;-85
2023/03/11 11:51:26;;;;;;;6.80;1.90;;;;;;;;;;4914044;29;20431;-86
2023/03/11 11:54:07;;;;;;;4.97;1.60;;;;;;;;;;4913792;29;20429;-87
2023/03/11 11:56:33;;;;;;;7.43;1.60;;;;;;;;;;4929731;29;21041;-86
2023/03/11 11:58:59;;;;;;;5.32;1.40;;;;;;;;;;4915265;29;20958;-87
2023/03/11 12:01:39;;;;;;;4.80;1.47;;;;;;;;;;4926662;29;20921;-86
2023/03/11 12:04:24;;;;;;;5.05;1.20;;;;;;;;;;4913301;29;20484;-86
2023/03/11 12:07:09;;;;;;;6.20;1.60;;;;;;;;;;4924121;29;20572;-87
2023/03/11 12:09:46;;;;;;;7.20;1.48;;;;;;;;;;4921164;29;20431;-87
2023/03/11 12:12:24;;;;;;;3.95;1.23;;;;;;;;;;4914731;29;20514;-85
2023/03/11 12:14:54;;;;;;;4.72;1.30;;;;;;;;;;4928813;29;21359;-87
2023/03/11 12:17:22;;;;;;;5.35;1.25;;;;;;;;;;4913192;29;20419;-87
2023/03/11 12:19:58;;;;;;;6.50;1.40;;;;;;;;;;4928287;29;20434;-86
2023/03/11 12:22:43;;;;;;;5.03;1.50;;;;;;;;;;4931994;29;21039;-85
2023/03/11 12:25:35;;;;;;;4.80;1.30;;;6.90;99.90;;;;;;4912514;29;20429;-85
2023/03/11 12:28:08;;;;;;;5.68;1.52;;;;;;;;;;4907098;29;20442;-84
2023/03/11 12:30:37;;;;;;;3.90;1.40;;;;;;;;;;4930818;29;20522;-84
2023/03/11 12:33:08;;;;;;;6.13;1.50;;;;;;;;;;4926332;29;20430;-83
2023/03/11 12:35:35;;;;;;;6.90;1.30;;;;;;;;;;4908941;29;20423;-84
2023/03/11 12:38:20;;;;;;;5.50;1.52;;;;;;;;;;4913268;29;20463;-82
2023/03/11 12:40:57;;;;;;;6.20;1.80;;;;;;;;;;4910938;29;20427;-83
2023/03/11 12:43:23;;;;;;;6.50;1.40;;;;;;;;;;4913850;29;20404;-84
2023/03/11 12:45:51;;;;;;;4.65;1.42;;;;;;;;;;4898601;29;20956;-83
2023/03/11 12:48:29;;;;;;;5.57;1.20;;;;;;;;;;4915035;29;20423;-83
2023/03/11 12:50:56;;;;;;;5.93;1.50;;;;;;;;;;4927548;29;20440;-84
2023/03/11 12:53:42;;;;;;;6.70;1.67;;;;;;;;;;4927383;29;20454;-84
2023/03/11 12:56:11;;;;;;;6.55;1.45;;;;;;;;;;4909285;29;20429;-85
2023/03/11 12:59:14;;;;;;;8.18;1.70;;;7.40;99.90;;;;;;4928690;29;20427;-88
2023/03/11 13:01:44;;;;;;;7.25;1.30;;;;;;;;;;4913334;29;20482;-82
2023/03/11 13:04:27;;;;;;;6.13;1.60;;;;;;;;;;4914450;29;20473;-81
2023/03/11 13:07:20;;;;;;;5.93;1.30;;;7.60;99.90;;;;;;4930011;29;20427;-82
2023/03/11 13:10:06;;;;;;;8.20;1.58;;;;;;;;;;4931622;29;20431;-82
2023/03/11 13:12:40;;;;;;;7.03;1.23;;;;;;;;;;4913492;29;20892;-81
2023/03/11 13:15:21;;;;;;;3.92;1.67;;;;;;;;;;4904878;29;20432;-81
2023/03/11 13:18:04;;;;;;;8.77;1.40;;;;;;;;;;4925477;29;20444;-81
2023/03/11 13:20:46;;;;;;;5.70;1.30;;;;;;;;;;4916067;29;20435;-81
2023/03/11 13:23:15;;;;;;;4.22;1.20;;;;;;;;;;4916106;29;20535;-81
2023/03/11 13:25:54;;;;;;;5.80;1.35;;;;;;;;;;4928225;29;20776;-80
2023/03/11 13:28:23;;;;;;;6.28;1.17;;;;;;;;;;4913580;29;20498;-79
2023/03/11 13:30:53;;;;;;;6.07;1.30;;;;;;;;;;4931781;29;20430;-79
2023/03/11 13:33:29;;;;;;;5.55;1.45;;;;;;;;;;4912353;29;20427;-80
2023/03/11 13:36:10;;;;;;;8.45;1.58;;;;;;;;;;4932205;29;20499;-80
2023/03/11 13:39:18;;;;;;;5.68;1.65;;;6.90;99.90;;;;;;4915590;29;20475;-79
2023/03/11 13:41:46;;;;;;;8.23;1.90;;;;;;;;;;4931320;29;20444;-79
2023/03/11 13:44:18;;;;;;;5.38;1.35;;;;;;;;;;4932492;29;20431;-80
2023/03/11 13:46:48;;;;;;;4.95;1.30;;;;;;;;;;4917234;29;20431;-79
2023/03/11 13:49:14;;;;;;;6.05;1.70;;;;;;;;;;4915065;29;20442;-80
2023/03/11 13:51:43;;;;;;;4.78;1.52;;;;;;;;;;4929973;29;20514;-80
2023/03/11 13:54:21;;;;;;;5.38;1.40;;;;;;;;;;4928381;29;20431;-80
2023/03/11 13:56:57;;;;;;;4.68;1.40;;;;;;;;;;4916188;29;20419;-81
2023/03/11 13:59:25;;;;;;;4.35;1.60;;;;;;;;;;4927754;29;20440;-79
2023/03/11 14:02:10;;;;;;;7.03;1.35;;;;;;;;;;4928560;29;20951;-80
2023/03/11 14:04:37;;;;;;;7.22;1.70;;;;;;;;;;4905732;29;20541;-79
2023/03/11 14:07:33;;;;;;;4.93;1.58;;;;;;;;;;4925025;29;20536;-78
2023/03/11 14:10:15;;;;;;;8.88;1.52;;;;;;;;;;4911770;29;20773;-78
2023/03/11 14:12:41;;;;;;;6.28;1.73;;;;;;;;;;4914356;29;20776;-78
2023/03/11 14:15:08;;;;;;;5.05;1.40;;;;;;;;;;4914691;29;20554;-80
2023/03/11 14:17:35;;;;;;;6.43;1.50;;;;;;;;;;4910976;29;20478;-78
2023/03/11 14:20:16;;;;;;;6.45;1.85;;;;;;;;;;4928026;29;20432;-79
2023/03/11 14:22:46;;;;;;;6.07;1.70;;;;;;;;;;4913377;29;20792;-78
2023/03/11 14:25:17;;;;;;;5.93;1.50;;;;;;;;;;4928158;29;20442;-79
2023/03/11 14:27:48;;;;;;;3.70;1.30;;;;;;;;;;4916381;29;20535;-78
2023/03/11 14:30:22;;;;;;;5.50;2.00;;;;;;;;;;4928372;29;20443;-79
2023/03/11 14:33:11;;;;;;;5.20;1.38;;;;;;;;;;4925974;29;20463;-80
2023/03/11 14:35:37;;;;;;;5.93;1.73;;;;;;;;;;4908071;29;22342;-80
2023/03/11 14:38:05;;;;;;;5.53;1.50;;;;;;;;;;4928857;29;20932;-80
2023/03/11 14:40:40;;;;;;;4.93;1.70;;;;;;;;;;4907992;29;20448;-80
2023/03/11 14:43:07;;;;;;;7.55;1.92;;;;;;;;;;4927252;29;20454;-81
2023/03/11 14:45:36;;;;;;;4.82;1.58;;;;;;;;;;4928194;29;20459;-80
2023/03/11 14:48:02;;;;;;;6.27;1.50;;;;;;;;;;4927491;29;21004;-80
2023/03/11 14:50:30;;;;;;;3.42;1.42;;;;;;;;;;4908027;29;20437;-80
2023/03/11 14:53:08;;;;;;;6.20;1.65;;;;;;;;;;4928767;29;20529;-80
2023/03/11 14:55:39;;;;;;;7.20;1.83;;;;;;;;;;4929829;29;20931;-80